createdAt,value
2019-05-13T05:45:22.100Z,17.60
2019-05-13T05:47:02.584Z,14.00
2019-05-13T06:14:18.896Z,14.20
2019-05-13T06:36:31.980Z,17.50
2019-05-13T06:38:07.310Z,18.90
2019-05-13T06:39:42.753Z,19.10
2019-05-13T06:41:17.967Z,19.10
2019-05-13T06:42:53.149Z,19.10
2019-05-13T06:44:28.340Z,19.20
2019-05-13T06:46:03.579Z,18.90
2019-05-13T06:47:41.176Z,18.80
2019-05-13T06:49:15.621Z,18.60
2019-05-13T06:50:52.135Z,18.70
2019-05-13T06:52:27.418Z,18.40
2019-05-13T06:54:02.683Z,18.50
2019-05-13T06:55:38.116Z,18.70
2019-05-13T06:57:13.694Z,18.90
2019-05-13T06:58:51.814Z,19.10
2019-05-13T07:00:26.680Z,19.20
2019-05-13T07:02:02.400Z,19.00
2019-05-13T07:03:37.741Z,19.00
2019-05-13T07:05:13.561Z,19.20
2019-05-13T07:06:51.475Z,19.00
2019-05-13T07:08:25.650Z,19.00
2019-05-13T07:10:02.447Z,18.80
2019-05-13T07:11:38.042Z,19.10
2019-05-13T07:13:13.237Z,19.20
2019-05-13T07:14:48.501Z,19.20
2019-05-13T07:16:23.756Z,19.10
2019-05-13T07:17:58.929Z,19.10
2019-05-13T07:19:34.396Z,19.00
2019-05-13T07:21:11.862Z,18.90
2019-05-13T07:22:46.742Z,18.90
2019-05-13T07:24:22.669Z,19.30
2019-05-13T07:25:57.835Z,19.20
2019-05-13T07:27:33.041Z,19.10
2019-05-13T07:29:08.613Z,19.00
2019-05-13T07:30:46.462Z,18.90
2019-05-13T07:32:22.212Z,18.70
2019-05-13T07:33:57.481Z,18.30
2019-05-13T07:35:37.829Z,18.40
2019-05-13T07:37:11.362Z,18.60
2019-05-13T07:38:47.342Z,18.60
2019-05-13T07:40:22.518Z,18.60
2019-05-13T07:41:57.994Z,18.40
2019-05-13T07:43:33.946Z,18.10
2019-05-13T07:45:11.484Z,18.30
2019-05-13T07:46:46.373Z,18.40
2019-05-13T07:48:27.663Z,18.40
2019-05-13T07:49:58.786Z,18.80
2019-05-13T07:51:34.351Z,18.90
2019-05-13T07:53:12.210Z,19.00
2019-05-13T07:54:46.407Z,19.00
2019-05-13T07:56:21.999Z,19.00
2019-05-13T07:57:57.257Z,18.90
2019-05-13T07:59:32.497Z,19.10
2019-05-13T08:01:07.733Z,19.30
2019-05-13T08:02:43.214Z,19.60
2019-05-13T08:04:22.721Z,19.50
2019-05-13T08:05:55.511Z,19.60
2019-05-13T08:07:31.673Z,19.80
2019-05-13T08:09:12.543Z,19.90
2019-05-13T08:10:46.909Z,20.30
2019-05-13T08:12:22.063Z,20.40
2019-05-13T08:13:57.483Z,20.30
2019-05-13T08:15:32.689Z,20.60
2019-05-13T08:17:07.921Z,20.30
2019-05-13T08:18:43.873Z,20.00
2019-05-13T08:20:22.102Z,20.20
2019-05-13T08:21:56.740Z,19.90
2019-05-13T08:23:32.514Z,19.80
2019-05-13T08:25:07.980Z,19.70
2019-05-13T08:26:47.609Z,19.70
2019-05-13T08:28:22.394Z,19.80
2019-05-13T08:29:57.079Z,20.00
2019-05-13T08:31:32.437Z,20.30
2019-05-13T08:33:07.773Z,20.40
2019-05-13T08:34:43.015Z,20.70
2019-05-13T08:36:18.694Z,21.10
2019-05-13T08:37:53.855Z,21.40
2019-05-13T08:39:35.767Z,21.50
2019-05-13T08:41:09.798Z,21.60
2019-05-13T08:42:43.086Z,21.40
2019-05-13T08:44:18.532Z,21.60
2019-05-13T08:45:55.801Z,21.40
2019-05-13T08:47:31.402Z,21.70
2019-05-13T08:49:06.716Z,22.00
2019-05-13T09:01:51.950Z,22.00
2019-05-13T09:06:37.972Z,22.00
2019-05-13T09:16:08.501Z,22.90
2019-05-13T09:17:43.668Z,23.00
2019-05-13T09:39:52.194Z,22.70
2019-05-13T09:49:23.682Z,19.20
2019-05-13T09:55:43.177Z,21.40
2019-05-13T10:00:28.233Z,23.50
2019-05-13T10:02:03.551Z,24.50
2019-05-13T10:03:53.158Z,24.30
2019-05-13T10:11:36.380Z,23.40
2019-05-13T10:13:15.403Z,23.90
2019-05-13T10:14:49.288Z,23.60
2019-05-13T10:16:24.904Z,24.00
2019-05-13T10:18:01.809Z,24.40
2019-05-13T10:24:22.192Z,24.50
2019-05-13T10:26:03.759Z,25.50
2019-05-13T10:27:41.326Z,25.50
2019-05-13T10:29:16.695Z,25.50
2019-05-13T10:30:53.047Z,25.60
2019-05-13T10:32:29.487Z,26.00
2019-05-13T10:34:05.916Z,26.60
2019-05-13T10:35:44.220Z,25.80
2019-05-13T10:37:22.066Z,24.10
2019-05-13T10:46:06.647Z,22.90
2019-05-13T10:47:42.442Z,22.20
2019-05-13T11:02:13.639Z,21.40
2019-05-13T11:03:52.135Z,22.70
2019-05-13T11:05:26.436Z,23.00
2019-05-13T11:07:02.893Z,23.20
2019-05-13T11:08:38.985Z,23.50
2019-05-13T11:16:36.716Z,24.00
2019-05-13T11:18:18.813Z,23.00
2019-05-13T11:19:49.787Z,22.90
2019-05-13T11:21:25.581Z,22.60
2019-05-13T11:30:59.856Z,22.60
2019-05-13T11:32:35.835Z,22.00
2019-05-13T11:34:11.225Z,21.90
2019-05-13T11:35:46.644Z,22.40
2019-05-13T11:37:23.119Z,23.30
2019-05-13T11:38:58.425Z,23.90
2019-05-13T11:40:33.850Z,24.30
2019-05-13T11:45:19.168Z,24.50
2019-05-13T11:46:54.690Z,25.80
2019-05-13T11:48:32.259Z,26.10
2019-05-13T11:50:07.696Z,26.10
2019-05-13T11:51:42.809Z,26.20
2019-05-13T11:53:37.447Z,26.10
2019-05-13T11:54:55.161Z,25.00
2019-05-13T11:56:33.638Z,22.80
2019-05-13T11:58:07.521Z,21.70
2019-05-13T12:04:29.446Z,20.70
2019-05-13T12:06:05.517Z,21.30
2019-05-13T12:07:42.050Z,21.20
2019-05-13T12:09:17.625Z,21.30
2019-05-13T12:10:52.650Z,20.80
2019-05-13T12:12:33.656Z,20.70
2019-05-13T12:14:05.037Z,20.90
2019-05-13T12:17:16.618Z,21.90
2019-05-13T12:18:52.871Z,22.60
2019-05-13T12:20:27.965Z,23.50
2019-05-13T12:22:03.531Z,23.60
2019-05-13T12:31:33.827Z,24.10
2019-05-13T12:36:23.461Z,27.10
2019-05-13T12:37:57.421Z,25.70
2019-05-13T12:39:32.534Z,24.10
2019-05-13T13:05:13.339Z,22.70
2019-05-13T13:06:41.580Z,24.30
2019-05-13T13:08:29.000Z,23.80
2019-05-13T13:09:53.638Z,22.90
2019-05-13T13:16:16.466Z,21.20
2019-05-13T13:19:28.575Z,18.20
2019-05-13T13:21:07.390Z,17.60
2019-05-13T13:22:40.993Z,17.90
2019-05-13T13:24:16.099Z,18.20
2019-05-13T13:25:54.210Z,18.20
2019-05-13T13:40:13.052Z,18.50
2019-05-13T13:41:48.590Z,23.90
2019-05-13T13:43:25.221Z,23.40
2019-05-13T13:59:25.035Z,17.90
2019-05-13T14:01:10.550Z,17.80
2019-05-13T14:02:37.397Z,17.80
2019-05-13T14:04:16.544Z,17.80
2019-05-13T14:05:52.590Z,18.00
2019-05-13T14:07:34.831Z,18.00
2019-05-13T14:09:04.317Z,18.80
2019-05-13T14:10:41.868Z,18.80
2019-05-13T14:12:16.385Z,18.40
2019-05-13T14:13:52.166Z,18.10
2019-05-13T14:15:30.860Z,18.20
2019-05-13T14:17:04.292Z,18.20
2019-05-13T14:18:41.721Z,18.00
2019-05-13T14:20:17.304Z,18.00
2019-05-13T14:21:52.785Z,18.00
2019-05-13T14:23:28.638Z,17.70
2019-05-13T14:25:04.064Z,17.50
2019-05-13T14:26:39.595Z,17.40
2019-05-13T14:28:17.486Z,17.10
2019-05-13T14:29:52.640Z,16.90
2019-05-13T14:31:27.635Z,16.90
2019-05-13T14:33:03.194Z,17.30
2019-05-13T14:34:38.276Z,17.50
2019-05-13T14:36:13.786Z,17.50
2019-05-13T14:37:48.582Z,17.10
2019-05-13T14:39:24.424Z,16.80
2019-05-13T14:41:01.602Z,16.50
2019-05-13T14:53:42.634Z,16.40
2019-05-13T14:55:18.324Z,17.20
2019-05-13T14:56:53.151Z,17.40
2019-05-13T14:58:28.717Z,17.80
2019-05-13T15:00:03.604Z,18.00
2019-05-13T15:01:41.364Z,17.90
2019-05-13T15:03:15.763Z,17.70
2019-05-13T15:04:52.370Z,17.70
2019-05-13T15:06:27.330Z,17.80
2019-05-13T15:08:03.174Z,18.20
2019-05-13T15:09:37.979Z,18.40
2019-05-13T15:11:14.000Z,18.50
2019-05-13T15:12:48.816Z,18.60
2019-05-13T15:14:24.717Z,18.70
2019-05-13T15:15:59.505Z,18.60
2019-05-13T15:17:35.649Z,18.20
2019-05-13T15:19:11.993Z,18.20
2019-05-13T15:20:47.795Z,18.10
2019-05-13T15:22:22.958Z,17.80
2019-05-13T15:23:58.493Z,17.60
2019-05-13T15:25:33.360Z,17.50
2019-05-13T15:27:09.297Z,17.60
2019-05-13T15:28:44.097Z,17.70
2019-05-13T15:30:21.852Z,17.90
2019-05-13T15:31:56.350Z,17.70
2019-05-13T15:33:32.861Z,17.80
2019-05-13T15:35:12.545Z,17.60
2019-05-13T15:36:45.665Z,17.60
2019-05-13T15:38:20.838Z,17.30
2019-05-13T15:39:56.375Z,17.40
2019-05-13T15:41:31.611Z,17.50
2019-05-13T15:43:07.161Z,17.70
2019-05-13T15:44:41.953Z,17.70
2019-05-13T15:46:17.570Z,17.60
2019-05-13T15:47:52.370Z,17.40
2019-05-13T15:49:27.901Z,17.40
2019-05-13T15:51:02.780Z,17.30
2019-05-13T15:52:38.861Z,17.30
2019-05-13T15:54:15.571Z,17.10
2019-05-13T15:55:51.779Z,17.00
2019-05-13T15:57:26.760Z,16.90
2019-05-13T15:59:02.934Z,16.80
2019-05-13T16:00:37.804Z,16.70
2019-05-13T16:02:13.334Z,16.50
2019-05-13T16:03:48.210Z,16.50
2019-05-13T16:05:24.095Z,16.60
2019-05-13T16:07:01.476Z,16.70
2019-05-13T16:08:36.510Z,16.60
2019-05-13T16:10:11.587Z,16.60
2019-05-13T16:11:47.221Z,16.50
2019-05-13T16:13:22.408Z,16.50
2019-05-13T16:14:58.261Z,16.50
2019-05-13T16:16:33.494Z,16.50
2019-05-13T16:18:11.145Z,16.40
2019-05-13T16:19:45.588Z,16.40
2019-05-13T16:21:21.167Z,16.40
2019-05-13T17:23:06.633Z,16.30
2019-05-13T17:24:42.775Z,14.10
2019-05-13T17:26:17.765Z,14.00
2019-05-13T17:27:53.545Z,13.90
2019-05-13T17:29:28.384Z,14.00
2019-05-13T17:31:03.921Z,13.80
2019-05-13T17:32:38.717Z,13.80
2019-05-13T17:34:14.508Z,13.80
2019-05-13T17:35:49.335Z,13.80
2019-05-13T17:37:24.874Z,13.70
2019-05-13T17:39:01.800Z,13.70
2019-05-13T17:40:36.913Z,13.60
2019-05-13T17:42:12.368Z,13.60
2019-05-13T17:43:48.086Z,13.50
2019-05-13T17:45:23.024Z,13.50
2019-05-13T17:46:58.608Z,13.50
2019-05-13T17:48:33.421Z,13.40
